Time;durP1;ratioP1;P1;durP2;ratioP2;P2;SDS_P1;SDS_P2;PMS_P1;PMS_P2;Temp;Humidity;BMP_temperature;BMP_pressure;BME280_temperature;BME280_humidity;BME280_pressure;Samples;Min_cycle;Max_cycle;Signal;HPM_P1;HPM_P2
2023/09/23 00:00:37;;;;;;;14.88;5.32;;;24.60;85.70;;;;;;5037557;28;20025;-73
2023/09/23 00:03:04;;;;;;;18.30;5.22;;;24.60;85.60;;;;;;5039736;28;20021;-72
2023/09/23 00:05:34;;;;;;;17.15;6.00;;;24.60;85.30;;;;;;5039476;28;20082;-73
2023/09/23 00:08:01;;;;;;;10.63;4.40;;;24.70;85.60;;;;;;5049631;28;20066;-72
2023/09/23 00:10:27;;;;;;;18.70;5.63;;;24.60;85.60;;;;;;5045174;28;20022;-74
2023/09/23 00:12:55;;;;;;;14.32;4.88;;;24.60;85.60;;;;;;5038987;28;20128;-73
2023/09/23 00:15:21;;;;;;;15.23;5.95;;;24.70;85.30;;;;;;5055538;28;20100;-72
2023/09/23 00:17:48;;;;;;;22.80;6.28;;;24.70;86.60;;;;;;5048687;28;20109;-73
2023/09/23 00:20:17;;;;;;;21.63;5.82;;;24.70;86.60;;;;;;5034316;28;20372;-73
2023/09/23 00:22:46;;;;;;;18.83;5.70;;;24.70;85.70;;;;;;5046524;28;20129;-73
2023/09/23 00:25:18;;;;;;;14.30;5.03;;;24.70;85.90;;;;;;5051369;28;20091;-73
2023/09/23 00:27:45;;;;;;;20.80;6.25;;;24.60;86.00;;;;;;5040620;28;20067;-74
2023/09/23 00:30:12;;;;;;;17.90;5.90;;;24.50;86.20;;;;;;5036824;28;20366;-73
2023/09/23 00:32:41;;;;;;;21.42;5.50;;;24.60;86.20;;;;;;5040686;28;20032;-73
2023/09/23 00:35:10;;;;;;;25.77;5.50;;;24.50;86.30;;;;;;5043609;28;20057;-73
2023/09/23 00:37:37;;;;;;;14.80;6.20;;;24.50;86.60;;;;;;5053482;28;20411;-73
2023/09/23 00:40:03;;;;;;;16.05;6.00;;;24.50;86.80;;;;;;5029675;28;20048;-73
2023/09/23 00:42:32;;;;;;;25.25;6.25;;;24.50;99.50;;;;;;5052757;28;20075;-73
2023/09/23 00:44:58;;;;;;;21.38;6.53;;;24.60;99.90;;;;;;5050242;28;20116;-74
2023/09/23 00:47:27;;;;;;;14.43;5.30;;;24.40;88.10;;;;;;5052871;28;20139;-73
2023/09/23 00:49:54;;;;;;;18.10;6.13;;;;;;;;;;5048307;28;20029;-73
2023/09/23 00:52:20;;;;;;;15.00;5.22;;;24.50;94.00;;;;;;5047223;28;20543;-73
2023/09/23 00:54:46;;;;;;;21.42;6.28;;;24.50;93.00;;;;;;5043167;28;20124;-73
2023/09/23 00:57:14;;;;;;;14.93;6.15;;;24.60;93.60;;;;;;5045716;28;20112;-73
2023/09/23 00:59:40;;;;;;;16.75;6.50;;;24.50;90.60;;;;;;5046647;28;20091;-74
2023/09/23 01:02:06;;;;;;;15.90;4.78;;;24.50;89.10;;;;;;5045803;28;20037;-73
2023/09/23 01:04:33;;;;;;;16.10;5.90;;;24.60;89.00;;;;;;5032285;28;20025;-72
2023/09/23 01:07:02;;;;;;;18.25;4.63;;;24.60;88.00;;;;;;5046168;28;20044;-73
2023/09/23 01:09:29;;;;;;;18.27;5.30;;;24.60;87.40;;;;;;5047945;28;20025;-72
2023/09/23 01:11:56;;;;;;;20.60;6.30;;;24.70;88.20;;;;;;5038643;28;20369;-72
2023/09/23 01:14:22;;;;;;;19.58;6.07;;;24.70;88.00;;;;;;5049267;28;20608;-74
2023/09/23 01:16:49;;;;;;;21.00;5.05;;;24.80;88.10;;;;;;5044681;28;20032;-72
2023/09/23 01:19:15;;;;;;;15.80;5.85;;;24.70;88.60;;;;;;5041035;28;20214;-73
2023/09/23 01:21:42;;;;;;;14.63;5.30;;;24.80;88.80;;;;;;5046518;28;20058;-73
2023/09/23 01:24:08;;;;;;;19.95;5.38;;;24.80;89.20;;;;;;5036587;28;20087;-72
2023/09/23 01:26:34;;;;;;;18.83;6.25;;;24.80;89.00;;;;;;5041581;28;20408;-72
2023/09/23 01:29:00;;;;;;;17.08;6.20;;;24.80;89.80;;;;;;5049623;28;20091;-71
2023/09/23 01:31:29;;;;;;;20.63;5.70;;;24.70;90.10;;;;;;5049354;28;20033;-71
2023/09/23 01:33:58;;;;;;;28.13;6.38;;;24.70;90.50;;;;;;5038689;28;20036;-71
2023/09/23 01:36:23;;;;;;;20.65;6.38;;;24.70;91.10;;;;;;5044583;28;20104;-71
2023/09/23 01:38:49;;;;;;;18.30;5.75;;;24.60;92.20;;;;;;5037715;28;20113;-73
2023/09/23 01:41:16;;;;;;;19.00;5.25;;;24.60;94.10;;;;;;5043946;28;20037;-72
2023/09/23 01:43:42;;;;;;;16.42;5.97;;;24.70;95.90;;;;;;5035241;28;20061;-73
2023/09/23 01:46:07;;;;;;;21.05;6.82;;;24.60;96.80;;;;;;5046396;28;20057;-72
2023/09/23 01:48:33;;;;;;;24.05;6.55;;;24.50;96.70;;;;;;5052586;28;20497;-73
2023/09/23 01:51:00;;;;;;;28.55;6.97;;;24.10;90.40;;;;;;5052996;28;20029;-72
2023/09/23 01:53:27;;;;;;;20.83;6.43;;;24.10;91.10;;;;;;5046669;28;20033;-72
2023/09/23 01:55:54;;;;;;;15.77;6.43;;;23.90;91.40;;;;;;5028802;28;20033;-72
2023/09/23 01:58:22;;;;;;;23.35;6.80;;;23.80;91.70;;;;;;5032393;28;20037;-72
2023/09/23 02:00:50;;;;;;;19.00;5.70;;;23.80;92.10;;;;;;5036797;28;20037;-72
2023/09/23 02:03:16;;;;;;;19.90;6.72;;;23.70;92.10;;;;;;5031841;28;20041;-72
2023/09/23 02:05:43;;;;;;;22.40;5.78;;;23.60;92.20;;;;;;5031294;28;20053;-72
2023/09/23 02:08:08;;;;;;;16.83;5.60;;;23.60;92.10;;;;;;5065528;28;20088;-72
2023/09/23 02:10:34;;;;;;;18.67;5.90;;;23.60;92.30;;;;;;5065588;28;20033;-72
2023/09/23 02:13:00;;;;;;;24.60;6.47;;;23.50;92.70;;;;;;5052148;28;20029;-72
2023/09/23 02:15:26;;;;;;;21.63;6.47;;;23.50;93.10;;;;;;5045948;28;20373;-72
2023/09/23 02:17:53;;;;;;;21.92;6.38;;;23.60;93.10;;;;;;5051617;28;20017;-72
2023/09/23 02:20:20;;;;;;;19.77;6.15;;;23.60;93.60;;;;;;5051553;28;20456;-73
2023/09/23 02:22:52;;;;;;;13.52;5.47;;;23.50;94.00;;;;;;5051460;28;20487;-73
2023/09/23 02:25:18;;;;;;;17.60;6.43;;;23.50;94.30;;;;;;5049097;28;20026;-72
2023/09/23 02:27:46;;;;;;;16.88;7.18;;;23.50;94.40;;;;;;5036851;28;20501;-72
2023/09/23 02:30:13;;;;;;;15.95;6.38;;;23.50;94.70;;;;;;5038725;28;20029;-72
2023/09/23 02:32:44;;;;;;;23.52;6.53;;;23.40;94.70;;;;;;5031771;28;20032;-73
2023/09/23 02:35:12;;;;;;;18.60;6.17;;;23.40;95.50;;;;;;5035423;28;20491;-73
2023/09/23 02:37:40;;;;;;;20.65;5.80;;;23.40;95.70;;;;;;5043039;28;20392;-72
2023/09/23 02:40:17;;;;;;;17.75;5.25;;;23.20;95.60;;;;;;5048832;28;20119;-72
2023/09/23 02:42:46;;;;;;;16.15;6.07;;;23.20;95.60;;;;;;5050489;28;20024;-73
2023/09/23 02:45:14;;;;;;;17.35;5.45;;;23.10;96.00;;;;;;5050513;28;20484;-73
2023/09/23 02:47:43;;;;;;;21.60;6.88;;;23.00;96.80;;;;;;5051078;28;20041;-72
2023/09/23 02:50:10;;;;;;;23.85;6.45;;;23.10;97.10;;;;;;5051890;28;20074;-74
2023/09/23 02:52:41;;;;;;;12.88;6.10;;;22.90;97.30;;;;;;5040632;28;20029;-73
2023/09/23 02:55:12;;;;;;;27.42;6.45;;;22.90;97.70;;;;;;5018422;28;20489;-72
2023/09/23 02:57:45;;;;;;;18.63;5.85;;;22.90;98.30;;;;;;5046718;28;20056;-71
2023/09/23 03:00:23;;;;;;;21.23;6.15;;;23.00;98.40;;;;;;5052218;28;20041;-72
2023/09/23 03:02:54;;;;;;;15.73;5.60;;;22.90;98.60;;;;;;5051950;28;20116;-73
2023/09/23 03:05:31;;;;;;;17.25;6.45;;;23.00;98.50;;;;;;5040192;28;20032;-72
2023/09/23 03:07:58;;;;;;;20.80;5.97;;;22.90;98.70;;;;;;5048427;28;20025;-71
2023/09/23 03:10:32;;;;;;;19.58;6.97;;;22.90;99.20;;;;;;5051864;28;20048;-72
2023/09/23 03:13:05;;;;;;;22.35;6.60;;;23.00;99.40;;;;;;5050273;28;20033;-72
2023/09/23 03:15:44;;;;;;;22.92;6.53;;;23.00;99.50;;;;;;5037672;28;20175;-72
2023/09/23 03:18:14;;;;;;;21.88;6.15;;;22.90;99.80;;;;;;5049029;28;20412;-71
2023/09/23 03:20:40;;;;;;;23.48;6.28;;;23.00;99.90;;;;;;5050952;28;20029;-72
2023/09/23 03:23:10;;;;;;;17.58;6.65;;;23.00;99.90;;;;;;5045832;28;20033;-72
2023/09/23 03:25:47;;;;;;;16.50;6.80;;;23.00;99.90;;;;;;5041080;28;20038;-72
2023/09/23 03:28:17;;;;;;;17.45;6.60;;;23.00;99.90;;;;;;5026556;28;20500;-72
2023/09/23 03:30:47;;;;;;;15.95;6.22;;;22.90;99.90;;;;;;5040219;28;20130;-72
2023/09/23 03:33:18;;;;;;;24.58;8.35;;;22.80;99.90;;;;;;5044189;28;20036;-70
2023/09/23 03:35:44;;;;;;;24.45;8.15;;;22.80;99.90;;;;;;5035504;28;20494;-72
2023/09/23 03:38:11;;;;;;;23.77;7.97;;;22.70;99.90;;;;;;5044813;28;20117;-71
2023/09/23 03:40:38;;;;;;;16.95;6.32;;;22.60;99.90;;;;;;5049313;28;20017;-73
2023/09/23 03:43:05;;;;;;;23.95;6.68;;;22.60;99.90;;;;;;5050426;28;20049;-72
2023/09/23 03:45:34;;;;;;;19.40;7.05;;;22.70;99.90;;;;;;5035195;28;20032;-70
2023/09/23 03:48:01;;;;;;;15.93;6.95;;;22.60;99.90;;;;;;5041485;28;20052;-71
2023/09/23 03:50:27;;;;;;;24.77;7.35;;;22.70;99.90;;;;;;5046908;28;20024;-72
2023/09/23 03:52:53;;;;;;;24.23;7.93;;;22.70;99.90;;;;;;5046621;28;20030;-71
2023/09/23 03:55:19;;;;;;;15.85;5.78;;;22.70;99.90;;;;;;5048967;28;20032;-72
2023/09/23 03:57:46;;;;;;;25.23;8.63;;;22.60;99.90;;;;;;5050047;28;20074;-72
2023/09/23 04:00:16;;;;;;;16.92;6.72;;;22.50;99.90;;;;;;5051298;28;20029;-72
2023/09/23 04:02:47;;;;;;;18.70;7.00;;;22.50;99.90;;;;;;5051405;28;20032;-72
2023/09/23 04:05:16;;;;;;;19.85;7.47;;;22.50;99.90;;;;;;5038070;28;20124;-72
2023/09/23 04:07:50;;;;;;;21.73;6.90;;;22.50;99.90;;;;;;5042893;28;20043;-72
2023/09/23 04:10:23;;;;;;;20.30;7.53;;;22.60;99.90;;;;;;5033682;28;20391;-73
2023/09/23 04:12:55;;;;;;;22.20;6.93;;;22.10;99.90;;;;;;5045809;28;20058;-73
2023/09/23 04:15:22;;;;;;;22.58;7.68;;;22.10;99.90;;;;;;5043801;28;20032;-71
2023/09/23 04:17:48;;;;;;;17.75;6.65;;;22.10;99.90;;;;;;5044508;28;20104;-72
2023/09/23 04:20:14;;;;;;;19.08;6.57;;;22.10;99.90;;;;;;5032244;28;20044;-71
2023/09/23 04:22:41;;;;;;;21.60;7.07;;;22.10;99.90;;;;;;5045303;28;20370;-71
2023/09/23 04:25:08;;;;;;;17.58;6.90;;;22.10;99.90;;;;;;5043343;28;20036;-72
2023/09/23 04:27:38;;;;;;;15.20;6.07;;;22.10;99.90;;;;;;5038939;28;20041;-73
2023/09/23 04:30:09;;;;;;;18.73;5.72;;;22.10;99.90;;;;;;5045605;28;20017;-72
2023/09/23 04:32:36;;;;;;;24.88;7.10;;;22.10;99.90;;;;;;5038951;28;20477;-72
2023/09/23 04:35:03;;;;;;;19.27;6.50;;;22.20;99.90;;;;;;5043078;28;20441;-73
2023/09/23 04:37:29;;;;;;;19.30;7.57;;;22.20;99.90;;;;;;5036782;28;20029;-72
2023/09/23 04:39:55;;;;;;;27.30;7.78;;;22.20;99.90;;;;;;5045259;28;20071;-72
2023/09/23 04:42:22;;;;;;;16.35;6.78;;;22.10;99.90;;;;;;5042454;28;20468;-72
2023/09/23 04:44:48;;;;;;;22.48;7.72;;;22.10;99.90;;;;;;5052122;28;20043;-72
2023/09/23 04:47:14;;;;;;;17.98;7.47;;;22.10;99.90;;;;;;5053708;28;20086;-72
2023/09/23 04:49:41;;;;;;;22.45;7.90;;;22.20;99.90;;;;;;5044306;28;20022;-72
2023/09/23 04:52:07;;;;;;;17.00;7.10;;;22.10;99.90;;;;;;5038833;28;20029;-71
2023/09/23 04:54:33;;;;;;;19.85;7.72;;;22.10;99.90;;;;;;5038807;28;20029;-71
2023/09/23 04:57:00;;;;;;;18.70;6.53;;;22.00;99.90;;;;;;5039314;28;20029;-73
2023/09/23 04:59:25;;;;;;;21.17;7.50;;;22.00;99.90;;;;;;5053938;28;20435;-72
2023/09/23 05:01:51;;;;;;;16.00;7.00;;;22.00;99.90;;;;;;5051526;28;20029;-71
2023/09/23 05:04:18;;;;;;;18.25;6.93;;;22.00;99.90;;;;;;5054028;28;20053;-72
2023/09/23 05:06:44;;;;;;;22.85;8.02;;;22.10;99.90;;;;;;5053663;28;20481;-71
2023/09/23 05:09:11;;;;;;;21.70;8.02;;;22.10;99.90;;;;;;5044132;28;20044;-70
2023/09/23 05:11:37;;;;;;;16.55;8.45;;;22.10;99.90;;;;;;5046585;28;20032;-71
2023/09/23 05:14:05;;;;;;;24.52;7.78;;;22.20;99.90;;;;;;5033506;28;20067;-72
2023/09/23 05:16:31;;;;;;;20.85;7.28;;;22.30;99.90;;;;;;5035960;28;20025;-71
2023/09/23 05:18:57;;;;;;;18.48;8.18;;;22.40;99.90;;;;;;5048875;28;20093;-72
2023/09/23 05:21:24;;;;;;;21.05;7.80;;;22.70;99.90;;;;;;5042829;28;20637;-72
2023/09/23 05:23:51;;;;;;;16.00;7.00;;;22.70;99.90;;;;;;5053897;28;20389;-71
2023/09/23 05:26:16;;;;;;;23.60;7.90;;;22.90;99.90;;;;;;5044246;28;20045;-71
2023/09/23 05:28:43;;;;;;;22.83;7.70;;;23.00;99.90;;;;;;5045069;28;20040;-73
2023/09/23 05:31:09;;;;;;;22.73;8.43;;;23.10;99.90;;;;;;5036551;28;20387;-73
2023/09/23 05:33:35;;;;;;;24.52;7.60;;;23.20;99.90;;;;;;5033831;28;20478;-73
2023/09/23 05:36:03;;;;;;;18.38;7.07;;;23.30;99.90;;;;;;5033572;28;20049;-73
2023/09/23 05:38:29;;;;;;;20.92;7.15;;;23.40;99.90;;;;;;5033677;28;20084;-72
2023/09/23 05:40:55;;;;;;;19.70;7.05;;;23.40;99.90;;;;;;5038088;28;20025;-72
2023/09/23 05:43:21;;;;;;;17.88;7.60;;;23.50;99.90;;;;;;5048657;28;20055;-72
2023/09/23 05:45:47;;;;;;;19.20;7.28;;;23.60;99.90;;;;;;5033595;28;20021;-75
2023/09/23 05:48:13;;;;;;;21.55;6.93;;;23.50;99.90;;;;;;5033433;28;20440;-74
2023/09/23 05:50:39;;;;;;;22.58;7.38;;;23.50;99.90;;;;;;5033445;28;20064;-73
2023/09/23 05:53:05;;;;;;;29.77;8.20;;;23.50;99.90;;;;;;5033404;28;20060;-71
2023/09/23 05:55:31;;;;;;;35.78;9.40;;;23.50;99.90;;;;;;5033076;28;20068;-70
2023/09/23 05:57:57;;;;;;;31.50;7.82;;;23.50;99.90;;;;;;5032957;28;20032;-73
2023/09/23 06:00:22;;;;;;;21.73;7.22;;;23.60;99.90;;;;;;5033025;28;20389;-73
2023/09/23 06:02:48;;;;;;;24.88;8.10;;;23.60;99.90;;;;;;5032933;28;20029;-73
2023/09/23 06:05:15;;;;;;;19.25;7.53;;;23.60;99.90;;;;;;5033184;28;20025;-77
2023/09/23 06:07:43;;;;;;;26.90;8.50;;;23.70;99.90;;;;;;5033129;28;20042;-75
2023/09/23 06:10:10;;;;;;;24.90;7.32;;;23.80;99.90;;;;;;5033075;28;20484;-72
2023/09/23 06:12:37;;;;;;;25.75;8.02;;;23.90;99.90;;;;;;5033218;28;20028;-72
2023/09/23 06:15:04;;;;;;;19.10;6.85;;;24.00;99.90;;;;;;5032712;28;20029;-72
2023/09/23 06:17:32;;;;;;;28.45;8.57;;;24.10;99.90;;;;;;5032951;28;20013;-72
2023/09/23 06:19:59;;;;;;;28.45;8.23;;;24.00;99.90;;;;;;5032673;28;20536;-71
2023/09/23 06:22:26;;;;;;;26.83;8.65;;;24.00;99.90;;;;;;5032985;28;20022;-71
2023/09/23 06:24:53;;;;;;;19.67;8.07;;;24.00;99.90;;;;;;5032852;28;20112;-72
2023/09/23 06:27:22;;;;;;;34.85;9.45;;;24.00;99.90;;;;;;5032504;28;20037;-72
2023/09/23 06:29:48;;;;;;;31.65;8.73;;;24.00;99.90;;;;;;5033023;28;20151;-71
2023/09/23 06:32:14;;;;;;;26.98;11.77;;;24.00;99.90;;;;;;5032482;28;20564;-71
2023/09/23 06:34:40;;;;;;;33.38;12.45;;;23.60;99.90;;;;;;5032618;28;20049;-71
2023/09/23 06:37:06;;;;;;;23.73;11.60;;;23.30;99.90;;;;;;5032168;28;20022;-70
2023/09/23 06:39:31;;;;;;;25.38;9.85;;;23.20;99.90;;;;;;5032605;28;20040;-72
2023/09/23 06:41:58;;;;;;;27.38;9.85;;;23.20;99.90;;;;;;5032362;28;20528;-72
2023/09/23 06:44:24;;;;;;;20.48;8.73;;;23.10;99.90;;;;;;5032500;28;20049;-71
2023/09/23 06:46:50;;;;;;;20.90;9.00;;;23.00;99.90;;;;;;5031955;28;20018;-72
2023/09/23 06:49:17;;;;;;;24.77;8.55;;;22.90;99.90;;;;;;5036810;28;20072;-73
2023/09/23 06:51:43;;;;;;;21.80;7.63;;;22.90;99.90;;;;;;5052104;28;20465;-72
2023/09/23 06:54:08;;;;;;;20.45;7.95;;;23.00;99.90;;;;;;5049280;28;20043;-71
2023/09/23 06:56:34;;;;;;;22.05;7.68;;;23.10;99.90;;;;;;5034333;28;20075;-72
2023/09/23 06:59:01;;;;;;;24.42;7.55;;;23.40;99.90;;;;;;5050073;28;20025;-72
2023/09/23 07:01:27;;;;;;;22.08;6.40;;;23.50;99.90;;;;;;5045192;28;20026;-71
2023/09/23 07:03:53;;;;;;;25.33;5.47;;;23.80;99.90;;;;;;5031899;28;20068;-72
2023/09/23 07:06:19;;;;;;;12.25;4.85;;;23.70;99.90;;;;;;5046877;28;20064;-72
2023/09/23 07:08:45;;;;;;;12.43;4.25;;;23.90;99.90;;;;;;5038745;28;20051;-71
2023/09/23 07:11:14;;;;;;;11.27;4.30;;;23.80;99.90;;;;;;5050652;28;20373;-72
2023/09/23 07:13:40;;;;;;;12.02;4.50;;;23.70;99.90;;;;;;5032308;28;20025;-73
2023/09/23 07:16:11;;;;;;;13.63;3.55;;;23.80;99.90;;;;;;5031476;28;20106;-72
2023/09/23 07:18:37;;;;;;;6.80;2.97;;;24.00;99.90;;;;;;5032590;28;20090;-72
2023/09/23 07:21:03;;;;;;;14.73;3.20;;;24.10;99.90;;;;;;5041527;28;20107;-72
2023/09/23 07:23:29;;;;;;;8.38;3.30;;;24.30;99.90;;;;;;5033185;28;20017;-73
2023/09/23 07:25:55;;;;;;;12.32;2.92;;;24.40;99.30;;;;;;5034643;28;20040;-73
2023/09/23 07:28:21;;;;;;;6.40;2.00;;;24.50;98.70;;;;;;5031349;28;20041;-75
2023/09/23 07:30:46;;;;;;;6.47;1.70;;;24.60;97.10;;;;;;5037219;28;20064;-72
2023/09/23 07:33:12;;;;;;;5.38;1.65;;;24.60;97.00;;;;;;5034423;28;20071;-73
2023/09/23 07:35:38;;;;;;;4.25;2.17;;;24.60;96.60;;;;;;5042004;28;20501;-75
2023/09/23 07:38:04;;;;;;;8.73;2.00;;;24.80;96.20;;;;;;5050970;28;20039;-72
2023/09/23 07:40:30;;;;;;;4.78;1.83;;;24.80;95.70;;;;;;5052045;28;20071;-73
2023/09/23 07:42:57;;;;;;;5.15;1.65;;;25.00;95.00;;;;;;5047092;28;20473;-74
2023/09/23 07:45:23;;;;;;;6.38;1.63;;;25.10;94.70;;;;;;5045299;28;20035;-73
2023/09/23 07:47:49;;;;;;;5.22;1.15;;;25.10;93.90;;;;;;5050762;28;20376;-73
2023/09/23 07:50:16;;;;;;;9.73;1.98;;;25.40;94.40;;;;;;5051360;28;20017;-73
2023/09/23 07:52:41;;;;;;;5.28;1.35;;;25.40;92.80;;;;;;5052002;28;20035;-74
2023/09/23 07:55:08;;;;;;;6.47;1.25;;;25.60;93.00;;;;;;5052566;28;20112;-73
2023/09/23 07:57:34;;;;;;;4.00;1.33;;;25.50;92.50;;;;;;5051958;28;20040;-72
2023/09/23 07:59:59;;;;;;;9.98;1.30;;;25.60;91.50;;;;;;5037111;28;20021;-74
2023/09/23 08:02:25;;;;;;;4.57;1.33;;;25.50;91.70;;;;;;5039944;28;20033;-73
2023/09/23 08:04:51;;;;;;;3.00;1.20;;;25.60;91.00;;;;;;5035827;28;20028;-74
2023/09/23 08:07:17;;;;;;;3.42;1.08;;;25.60;90.70;;;;;;5051990;28;20500;-72
2023/09/23 08:09:44;;;;;;;1.92;0.80;;;25.70;89.10;;;;;;5056232;28;20111;-76
2023/09/23 08:12:09;;;;;;;2.50;0.90;;;25.80;89.90;;;;;;5055419;28;20024;-73
2023/09/23 08:14:36;;;;;;;4.22;1.30;;;25.90;89.30;;;;;;5048362;28;20189;-72
2023/09/23 08:17:02;;;;;;;1.85;0.75;;;25.90;88.50;;;;;;5048678;28;20087;-74
2023/09/23 08:19:28;;;;;;;3.33;1.00;;;26.10;88.10;;;;;;5042414;28;20053;-74
2023/09/23 08:21:54;;;;;;;8.77;1.45;;;26.10;88.50;;;;;;5056136;28;20134;-77
2023/09/23 08:24:20;;;;;;;3.28;1.23;;;26.10;89.30;;;;;;5056023;28;20464;-73
2023/09/23 08:26:47;;;;;;;4.28;1.10;;;26.20;89.10;;;;;;5055929;28;20060;-72
2023/09/23 08:29:14;;;;;;;2.92;1.40;;;26.20;88.40;;;;;;5055659;28;20074;-73
2023/09/23 08:31:40;;;;;;;4.82;1.05;;;26.30;88.10;;;;;;5054168;28;20480;-73
2023/09/23 08:34:09;;;;;;;3.83;1.48;;;26.40;87.30;;;;;;5055831;28;20117;-73
2023/09/23 08:36:38;;;;;;;2.88;1.02;;;26.50;87.30;;;;;;5055110;28;20025;-73
2023/09/23 08:39:09;;;;;;;5.85;1.45;;;26.50;87.40;;;;;;5055922;28;20104;-72
2023/09/23 08:41:35;;;;;;;3.42;1.08;;;26.80;88.10;;;;;;5055218;28;20039;-72
2023/09/23 08:44:05;;;;;;;7.93;1.45;;;26.90;85.70;;;;;;5055540;28;20037;-72
2023/09/23 08:46:32;;;;;;;2.78;1.00;;;26.90;86.20;;;;;;5055185;28;20062;-72
2023/09/23 08:49:01;;;;;;;2.70;0.95;;;26.90;84.70;;;;;;5055416;28;20120;-72
2023/09/23 08:51:27;;;;;;;6.47;1.20;;;26.90;84.40;;;;;;5055092;28;20024;-73
2023/09/23 08:53:54;;;;;;;3.67;1.23;;;27.00;85.30;;;;;;5053836;28;20417;-73
2023/09/23 08:56:23;;;;;;;7.63;1.33;;;27.20;85.00;;;;;;5055162;28;20033;-71
2023/09/23 08:58:49;;;;;;;8.30;1.65;;;27.20;83.80;;;;;;5055474;28;20033;-73
2023/09/23 09:01:16;;;;;;;5.95;1.45;;;27.40;84.80;;;;;;5054949;28;20032;-72
2023/09/23 09:03:44;;;;;;;4.30;1.48;;;27.30;82.00;;;;;;5055485;28;20029;-72
2023/09/23 09:06:17;;;;;;;4.13;1.50;;;27.30;82.00;;;;;;5054967;28;20472;-73
2023/09/23 09:08:43;;;;;;;6.15;1.08;;;27.30;82.20;;;;;;5055059;28;20401;-72
2023/09/23 09:11:09;;;;;;;6.20;1.75;;;27.30;81.40;;;;;;5040873;28;20032;-73
2023/09/23 09:13:36;;;;;;;5.95;1.20;;;27.40;81.80;;;;;;5055014;28;20025;-72
2023/09/23 09:16:06;;;;;;;6.82;1.15;;;27.50;81.00;;;;;;5054611;28;20017;-72
2023/09/23 09:18:32;;;;;;;4.53;1.50;;;27.50;81.50;;;;;;5054773;28;20040;-72
2023/09/23 09:20:58;;;;;;;7.35;1.83;;;27.40;81.70;;;;;;5054781;28;20100;-72
2023/09/23 09:23:32;;;;;;;3.65;1.30;;;27.40;81.90;;;;;;5054887;28;20423;-73
2023/09/23 09:25:59;;;;;;;7.53;1.40;;;27.30;81.30;;;;;;5054837;28;20059;-73
2023/09/23 09:28:24;;;;;;;2.28;1.27;;;27.40;81.40;;;;;;5054983;28;20037;-73
2023/09/23 09:30:58;;;;;;;3.83;1.13;;;27.60;81.00;;;;;;5049077;28;20083;-72
2023/09/23 09:33:27;;;;;;;7.93;1.75;;;27.30;80.20;;;;;;5047621;28;20132;-73
2023/09/23 09:35:56;;;;;;;7.60;1.70;;;27.40;81.40;;;;;;5028806;28;20013;-72
2023/09/23 09:38:25;;;;;;;3.53;1.80;;;27.40;80.90;;;;;;5053328;28;20033;-73
2023/09/23 09:41:00;;;;;;;4.05;1.50;;;27.60;82.30;;;;;;5054751;28;20025;-72
2023/09/23 09:43:27;;;;;;;4.97;1.20;;;27.60;81.20;;;;;;5054317;28;20048;-73
2023/09/23 09:45:54;;;;;;;5.68;1.60;;;27.50;79.80;;;;;;5054260;28;20032;-74
2023/09/23 09:48:22;;;;;;;6.15;1.58;;;27.50;80.10;;;;;;5053977;28;20041;-73
2023/09/23 09:50:50;;;;;;;6.15;1.60;;;27.70;79.60;;;;;;5054445;28;20028;-72
2023/09/23 09:53:18;;;;;;;5.53;1.35;;;27.70;80.00;;;;;;5053996;28;20028;-73
2023/09/23 09:55:44;;;;;;;4.20;2.00;;;27.80;80.00;;;;;;5053992;28;20384;-72
2023/09/23 09:58:11;;;;;;;3.47;1.48;;;27.90;79.00;;;;;;5054230;28;20116;-72
2023/09/23 10:00:43;;;;;;;8.30;1.88;;;27.90;78.40;;;;;;5035955;28;20033;-72
2023/09/23 10:03:12;;;;;;;5.80;2.10;;;27.80;77.30;;;;;;5033761;28;20030;-73
2023/09/23 10:05:47;;;;;;;6.15;1.67;;;28.10;79.10;;;;;;5027411;28;20056;-72
2023/09/23 10:08:15;;;;;;;3.03;1.00;;;28.50;77.60;;;;;;5033236;28;20528;-72
2023/09/23 10:10:49;;;;;;;6.60;1.52;;;28.60;76.10;;;;;;5034942;28;20024;-73
2023/09/23 10:13:16;;;;;;;6.50;1.35;;;28.40;76.00;;;;;;5042654;28;20057;-72
2023/09/23 10:15:43;;;;;;;3.50;1.77;;;28.50;77.70;;;;;;5038192;28;20040;-72
2023/09/23 10:18:13;;;;;;;3.25;1.50;;;28.80;78.70;;;;;;5033860;28;20025;-72
2023/09/23 10:20:41;;;;;;;7.70;2.03;;;28.30;76.10;;;;;;5034103;28;20025;-72
2023/09/23 10:23:08;;;;;;;6.32;2.03;;;28.60;76.00;;;;;;5033804;28;20087;-72
2023/09/23 10:25:39;;;;;;;8.82;2.30;;;28.50;76.60;;;;;;5041190;28;20044;-72
2023/09/23 10:28:05;;;;;;;6.47;1.75;;;28.60;76.70;;;;;;5045659;28;20132;-72
2023/09/23 10:30:33;;;;;;;3.33;1.70;;;28.60;76.70;;;;;;5053660;28;20495;-71
2023/09/23 10:32:59;;;;;;;6.47;1.75;;;28.60;77.20;;;;;;5053224;28;20033;-72
2023/09/23 10:35:26;;;;;;;7.93;2.30;;;28.80;78.10;;;;;;5042058;28;20036;-72
2023/09/23 10:37:52;;;;;;;8.02;2.15;;;;;;;;;;5040335;28;20378;-75
2023/09/23 10:40:19;;;;;;;8.88;2.33;;;29.00;75.80;;;;;;5053545;28;20024;-72
2023/09/23 10:42:49;;;;;;;10.25;2.80;;;29.20;76.80;;;;;;5040996;28;20017;-72
2023/09/23 10:45:17;;;;;;;6.63;2.35;;;29.30;76.80;;;;;;5034832;28;20469;-71
2023/09/23 10:47:45;;;;;;;7.85;2.85;;;29.40;76.10;;;;;;5046192;28;20039;-72
2023/09/23 10:50:11;;;;;;;11.73;2.70;;;29.40;77.40;;;;;;5053341;28;20056;-73
2023/09/23 10:52:38;;;;;;;5.30;2.20;;;29.50;76.90;;;;;;5040891;28;20057;-72
2023/09/23 10:55:05;;;;;;;10.82;2.90;;;29.50;77.80;;;;;;5033352;28;20030;-72
2023/09/23 10:57:31;;;;;;;8.63;2.97;;;29.60;76.00;;;;;;5033404;28;20454;-72
2023/09/23 10:59:58;;;;;;;9.27;2.88;;;29.70;77.10;;;;;;5033413;28;20029;-69
2023/09/23 11:02:24;;;;;;;7.60;2.92;;;29.50;75.10;;;;;;5033165;28;20018;-71
2023/09/23 11:04:53;;;;;;;9.52;3.03;;;29.60;76.10;;;;;;5033349;28;20029;-72
2023/09/23 11:07:20;;;;;;;13.15;2.95;;;29.70;76.10;;;;;;5033159;28;20470;-72
2023/09/23 11:09:46;;;;;;;18.00;3.20;;;29.50;74.70;;;;;;5033310;28;20104;-72
2023/09/23 11:12:13;;;;;;;10.32;4.25;;;29.60;76.70;;;;;;5033127;28;20026;-71
2023/09/23 11:14:45;;;;;;;13.93;3.42;;;29.60;75.10;;;;;;5033200;28;20040;-70
2023/09/23 11:17:29;;;;;;;13.65;4.00;;;29.60;75.90;;;;;;5033137;28;20036;-70
2023/09/23 11:19:56;;;;;;;8.70;3.53;;;29.60;75.80;;;;;;5020815;28;20021;-72
2023/09/23 11:22:30;;;;;;;11.40;3.30;;;29.60;76.40;;;;;;5032829;28;20045;-72
2023/09/23 11:24:57;;;;;;;11.10;3.63;;;29.50;75.70;;;;;;5032683;28;20040;-72
2023/09/23 11:27:27;;;;;;;11.32;3.45;;;29.60;77.00;;;;;;5032880;28;20500;-73
2023/09/23 11:29:53;;;;;;;10.30;3.55;;;29.30;74.30;;;;;;5033086;28;20022;-73
2023/09/23 11:32:21;;;;;;;8.90;3.67;;;29.30;75.60;;;;;;5032524;28;20385;-72
2023/09/23 11:34:48;;;;;;;16.75;3.58;;;29.60;78.40;;;;;;5043131;28;20064;-72
2023/09/23 11:37:14;;;;;;;13.82;3.53;;;29.70;77.60;;;;;;5050907;28;20447;-72
2023/09/23 11:39:40;;;;;;;16.77;4.32;;;;;;;;;;5055797;28;20067;-72
2023/09/23 11:42:06;;;;;;;13.15;4.05;;;29.90;75.80;;;;;;5056767;28;20021;-72
2023/09/23 11:44:34;;;;;;;16.42;3.85;;;29.90;75.60;;;;;;5056830;28;20086;-72
2023/09/23 11:47:00;;;;;;;12.75;4.10;;;29.70;74.00;;;;;;5056463;28;20481;-72
2023/09/23 11:49:29;;;;;;;13.18;3.55;;;29.70;75.20;;;;;;5056790;28;20091;-73
2023/09/23 11:51:56;;;;;;;10.95;3.15;;;29.80;75.10;;;;;;5056272;28;20084;-72
2023/09/23 11:54:22;;;;;;;8.27;2.72;;;29.90;75.50;;;;;;5056583;28;20061;-72
2023/09/23 11:56:47;;;;;;;7.28;2.30;;;29.90;76.40;;;;;;5056180;28;20048;-72
2023/09/23 11:59:14;;;;;;;14.95;3.45;;;29.70;74.30;;;;;;5056408;28;20021;-72
2023/09/23 12:01:41;;;;;;;8.63;2.90;;;29.80;74.60;;;;;;5043201;28;20017;-72
2023/09/23 12:04:07;;;;;;;11.18;2.78;;;29.60;73.40;;;;;;5036190;28;20488;-73
2023/09/23 12:06:35;;;;;;;9.48;2.95;;;29.80;73.90;;;;;;5055842;28;20046;-71
2023/09/23 12:09:08;;;;;;;11.18;2.42;;;29.70;72.80;;;;;;5052024;28;20037;-70
2023/09/23 12:11:36;;;;;;;11.65;3.10;;;29.80;73.30;;;;;;5045313;28;20488;-70
2023/09/23 12:14:02;;;;;;;8.73;3.30;;;29.90;73.30;;;;;;5055980;28;20048;-71
2023/09/23 12:16:29;;;;;;;12.77;3.92;;;30.00;74.60;;;;;;5056312;28;20028;-71
2023/09/23 12:18:55;;;;;;;13.38;3.95;;;30.00;72.90;;;;;;5056120;28;20384;-71
2023/09/23 12:21:21;;;;;;;10.60;3.15;;;30.20;73.80;;;;;;5056182;28;20032;-71
2023/09/23 12:23:47;;;;;;;7.10;3.35;;;30.20;72.80;;;;;;5056026;28;20417;-72
2023/09/23 12:26:15;;;;;;;9.88;3.15;;;30.10;73.10;;;;;;5056210;28;20116;-72
2023/09/23 12:28:41;;;;;;;9.10;3.20;;;29.80;71.20;;;;;;5055800;28;20058;-72
2023/09/23 12:31:07;;;;;;;12.73;3.40;;;30.00;73.30;;;;;;5056034;28;20114;-71
2023/09/23 12:33:32;;;;;;;9.30;2.65;;;30.00;72.10;;;;;;5055740;28;20096;-72
2023/09/23 12:35:58;;;;;;;15.70;3.42;;;29.90;71.80;;;;;;5056141;28;20100;-72
2023/09/23 12:38:24;;;;;;;18.17;3.55;;;29.90;70.60;;;;;;5055357;28;20113;-72
2023/09/23 12:40:50;;;;;;;12.00;3.67;;;29.80;70.30;;;;;;5055921;28;20032;-72